Time;durP1;ratioP1;P1;durP2;ratioP2;P2;SDS_P1;SDS_P2;PMS_P1;PMS_P2;Temp;Humidity;BMP_temperature;BMP_pressure;BME280_temperature;BME280_humidity;BME280_pressure;Samples;Min_cycle;Max_cycle;Signal;HPM_P1;HPM_P2
2022/03/20 00:01:07;;;;;;;22.37;17.60;;;7.70;92.90;;;;;;5061508;28;20460;-39
2022/03/20 00:03:33;;;;;;;20.13;17.43;;;7.80;92.90;;;;;;5060246;28;20543;-40
2022/03/20 00:05:59;;;;;;;21.43;17.97;;;7.70;93.00;;;;;;5067102;28;20581;-40
2022/03/20 00:08:25;;;;;;;20.90;17.67;;;7.70;93.10;;;;;;5077921;28;20235;-40
2022/03/20 00:10:53;;;;;;;25.07;19.00;;;7.70;93.10;;;;;;5049685;28;20482;-40
2022/03/20 00:13:22;;;;;;;23.20;17.43;;;7.60;93.20;;;;;;5048700;28;20734;-42
2022/03/20 00:15:50;;;;;;;25.93;18.40;;;7.40;93.20;;;;;;5047690;28;20432;-39
2022/03/20 00:18:20;;;;;;;23.10;18.53;;;7.50;93.50;;;;;;5054654;28;20477;-40
2022/03/20 00:21:04;;;;;;;24.03;18.43;;;7.50;93.60;;;;;;5047847;28;20420;-40
2022/03/20 00:23:30;;;;;;;20.27;17.83;;;7.40;93.70;;;;;;5050418;28;20783;-40
2022/03/20 00:25:56;;;;;;;22.40;17.70;;;7.50;93.80;;;;;;5048818;28;20424;-40
2022/03/20 00:28:24;;;;;;;23.97;19.13;;;7.40;93.70;;;;;;5048334;28;20738;-40
2022/03/20 00:30:50;;;;;;;22.20;17.77;;;7.50;93.90;;;;;;5055645;28;20583;-40
2022/03/20 00:33:17;;;;;;;20.30;17.77;;;7.60;93.80;;;;;;5067633;28;20431;-40
2022/03/20 00:35:42;;;;;;;24.57;18.60;;;7.30;93.80;;;;;;5048215;28;20470;-39
2022/03/20 00:38:09;;;;;;;22.43;17.70;;;7.40;93.90;;;;;;5053169;28;20471;-40
2022/03/20 00:40:36;;;;;;;22.43;17.27;;;7.20;93.70;;;;;;5047380;28;20192;-42
2022/03/20 00:43:04;;;;;;;22.13;19.10;;;7.40;94.00;;;;;;5048006;28;20424;-40
2022/03/20 00:45:29;;;;;;;24.20;17.20;;;7.30;93.90;;;;;;5050722;28;20424;-39
2022/03/20 00:47:56;;;;;;;22.93;18.10;;;7.20;93.70;;;;;;5069728;28;20415;-41
2022/03/20 00:50:22;;;;;;;21.63;17.93;;;7.30;93.90;;;;;;5052315;28;20665;-40
2022/03/20 00:52:48;;;;;;;23.70;17.63;;;7.10;93.80;;;;;;5049070;28;20413;-39
2022/03/20 00:55:13;;;;;;;22.43;18.27;;;7.30;93.50;;;;;;5046202;28;20926;-39
2022/03/20 00:57:39;;;;;;;21.60;18.27;;;7.30;93.60;;;;;;5047714;28;20228;-43
2022/03/20 01:00:06;;;;;;;27.27;17.90;;;7.20;93.70;;;;;;5051375;28;20197;-40
2022/03/20 01:02:42;;;;;;;23.50;17.63;;;7.10;93.50;;;;;;5062908;28;20184;-40
2022/03/20 01:05:09;;;;;;;25.37;19.93;;;7.10;93.30;;;;;;5055832;28;20459;-40
2022/03/20 01:07:36;;;;;;;22.20;19.13;;;7.10;93.50;;;;;;5046277;28;21120;-40
2022/03/20 01:10:04;;;;;;;22.63;17.90;;;7.00;93.60;;;;;;5055365;28;20860;-39
2022/03/20 01:12:32;;;;;;;23.97;18.67;;;6.90;93.40;;;;;;5047400;28;20440;-39
2022/03/20 01:14:59;;;;;;;21.93;17.90;;;7.10;93.60;;;;;;5054949;28;20522;-40
2022/03/20 01:17:24;;;;;;;22.30;18.93;;;6.70;93.40;;;;;;5059649;28;20787;-40
2022/03/20 01:19:51;;;;;;;24.80;19.07;;;6.70;93.10;;;;;;5055976;28;20463;-39
2022/03/20 01:22:16;;;;;;;22.77;19.30;;;6.90;93.10;;;;;;5052888;28;20182;-40
2022/03/20 01:24:42;;;;;;;20.30;17.23;;;6.70;93.20;;;;;;5050427;28;20903;-41
2022/03/20 01:27:09;;;;;;;22.83;19.60;;;6.70;93.50;;;;;;5047456;28;20289;-40
2022/03/20 01:29:35;;;;;;;26.10;19.60;;;6.60;93.20;;;;;;5046602;28;20858;-39
2022/03/20 01:32:01;;;;;;;22.20;18.50;;;6.70;93.40;;;;;;5065439;28;20792;-39
2022/03/20 01:34:26;;;;;;;26.60;18.97;;;6.60;93.40;;;;;;5063713;28;20923;-40
2022/03/20 01:36:52;;;;;;;22.17;16.80;;;6.60;93.40;;;;;;5045784;28;20494;-40
2022/03/20 01:39:19;;;;;;;24.50;19.70;;;6.50;93.20;;;;;;5050318;28;20209;-40
2022/03/20 01:41:46;;;;;;;23.23;17.90;;;6.70;93.30;;;;;;5046759;28;20919;-39
2022/03/20 01:44:12;;;;;;;24.77;19.13;;;6.40;93.30;;;;;;5046675;28;20424;-39
2022/03/20 01:46:37;;;;;;;23.73;18.93;;;6.50;93.50;;;;;;5055660;28;20447;-39
2022/03/20 01:49:03;;;;;;;22.50;18.33;;;6.40;93.40;;;;;;5066033;28;20299;-40
2022/03/20 01:54:14;;;;;;;19.00;16.60;;;6.60;93.50;;;;;;5058196;28;20840;-39
2022/03/20 01:56:45;;;;;;;22.00;18.10;;;6.50;93.40;;;;;;5046565;28;20473;-40
2022/03/20 01:59:15;;;;;;;24.33;17.87;;;6.50;93.30;;;;;;5047153;28;20716;-39
2022/03/20 02:01:41;;;;;;;23.17;18.20;;;6.70;93.20;;;;;;5049994;28;20440;-40
2022/03/20 02:04:07;;;;;;;20.63;17.10;;;6.60;93.30;;;;;;5073636;28;20566;-40
2022/03/20 02:06:32;;;;;;;22.37;18.90;;;6.50;93.40;;;;;;5045732;28;20633;-41
2022/03/20 02:08:58;;;;;;;24.20;17.87;;;6.50;93.60;;;;;;5053587;28;20177;-40
2022/03/20 02:11:27;;;;;;;26.03;18.57;;;6.60;93.90;;;;;;5046335;28;20189;-39
2022/03/20 02:13:53;;;;;;;22.90;17.23;;;6.50;93.80;;;;;;5046577;28;20193;-40
2022/03/20 02:16:19;;;;;;;22.50;18.60;;;6.50;93.70;;;;;;5056010;28;20434;-40
2022/03/20 02:18:46;;;;;;;23.97;19.20;;;6.30;93.90;;;;;;5066178;28;20458;-41
2022/03/20 02:21:12;;;;;;;24.60;18.20;;;6.50;93.70;;;;;;5056851;28;20977;-40
2022/03/20 02:23:38;;;;;;;24.57;19.20;;;6.20;93.70;;;;;;5048294;28;20515;-39
2022/03/20 02:26:04;;;;;;;25.67;19.20;;;6.50;93.80;;;;;;5046592;28;20197;-39
2022/03/20 02:28:30;;;;;;;22.47;18.17;;;6.50;93.90;;;;;;5046632;28;20256;-40
2022/03/20 02:30:55;;;;;;;22.87;18.87;;;6.60;93.60;;;;;;5055104;28;20209;-39
2022/03/20 02:33:24;;;;;;;22.20;17.80;;;6.60;93.50;;;;;;5074697;28;20717;-40
2022/03/20 02:35:51;;;;;;;24.97;19.47;;;6.40;93.50;;;;;;5046340;28;20543;-40
2022/03/20 02:38:18;;;;;;;23.83;17.97;;;6.20;93.40;;;;;;5046949;28;20471;-40
2022/03/20 02:40:45;;;;;;;26.90;21.10;;;6.30;92.90;;;;;;5056709;28;20428;-40
2022/03/20 02:43:10;;;;;;;29.40;19.40;;;6.20;93.10;;;;;;5046257;28;20432;-40
2022/03/20 02:45:37;;;;;;;24.20;18.83;;;6.00;93.00;;;;;;5045651;28;20447;-40
2022/03/20 02:48:04;;;;;;;26.23;19.13;;;6.30;93.30;;;;;;5051963;28;20440;-39
2022/03/20 02:50:35;;;;;;;25.50;18.60;;;6.30;93.10;;;;;;5059832;28;20444;-40
2022/03/20 02:53:13;;;;;;;23.77;17.97;;;6.20;92.90;;;;;;5046387;28;20551;-40
2022/03/20 02:55:47;;;;;;;24.80;18.50;;;6.30;92.90;;;;;;5050901;28;20442;-40
2022/03/20 02:58:15;;;;;;;22.07;17.93;;;6.30;92.70;;;;;;5064130;28;20478;-39
2022/03/20 03:00:42;;;;;;;25.10;17.90;;;6.30;92.70;;;;;;5048279;28;20968;-42
2022/03/20 03:03:10;;;;;;;23.20;18.67;;;6.20;92.70;;;;;;5060618;28;20443;-40
2022/03/20 03:05:38;;;;;;;24.23;18.67;;;6.10;92.30;;;;;;5061465;28;20426;-42
2022/03/20 03:10:57;;;;;;;24.50;19.10;;;6.30;92.30;;;;;;5052069;28;20420;-40
2022/03/20 03:13:31;;;;;;;23.00;17.30;;;6.30;92.00;;;;;;5049654;28;20427;-40
2022/03/20 03:16:00;;;;;;;29.00;18.60;;;6.10;91.80;;;;;;5055582;28;20489;-40
2022/03/20 03:18:26;;;;;;;26.10;18.53;;;6.30;92.00;;;;;;5065945;28;20470;-39
2022/03/20 03:20:52;;;;;;;27.70;17.97;;;6.10;91.60;;;;;;5058078;28;20554;-39
2022/03/20 03:23:20;;;;;;;21.37;18.03;;;6.10;91.40;;;;;;5050554;28;20970;-40
2022/03/20 03:25:46;;;;;;;22.90;18.33;;;6.00;91.40;;;;;;5061540;28;20554;-40
2022/03/20 03:28:12;;;;;;;23.47;17.93;;;6.00;91.40;;;;;;5049588;28;20960;-42
2022/03/20 03:30:43;;;;;;;23.90;18.80;;;6.00;91.30;;;;;;5048102;28;20542;-39
2022/03/20 03:33:10;;;;;;;22.50;17.10;;;6.20;91.50;;;;;;5066779;28;20927;-39
2022/03/20 03:35:42;;;;;;;23.83;17.53;;;5.90;90.90;;;;;;5058370;28;20436;-40
2022/03/20 03:38:10;;;;;;;20.90;16.97;;;6.20;91.10;;;;;;5049535;28;20896;-41
2022/03/20 03:40:37;;;;;;;27.40;19.30;;;6.00;90.80;;;;;;5055672;28;20626;-39
2022/03/20 03:43:03;;;;;;;24.37;17.10;;;6.00;90.80;;;;;;5047872;28;20425;-39
2022/03/20 03:45:29;;;;;;;24.00;17.60;;;6.20;90.50;;;;;;5048855;28;20436;-39
2022/03/20 03:47:55;;;;;;;26.03;17.10;;;6.20;90.40;;;;;;5069109;28;20440;-40
2022/03/20 03:50:22;;;;;;;21.50;16.80;;;6.20;90.50;;;;;;5067913;28;20757;-39
2022/03/20 03:52:48;;;;;;;24.50;18.13;;;6.20;90.50;;;;;;5049300;28;20586;-39
2022/03/20 03:55:14;;;;;;;26.43;19.70;;;6.20;90.40;;;;;;5051888;28;20428;-39
2022/03/20 03:57:47;;;;;;;26.70;19.80;;;6.20;90.60;;;;;;5049169;28;21080;-39
2022/03/20 04:00:14;;;;;;;22.10;17.30;;;6.10;90.50;;;;;;5048319;28;20455;-39
2022/03/20 04:02:40;;;;;;;21.73;16.93;;;6.00;90.30;;;;;;5058779;28;20686;-40
2022/03/20 04:05:06;;;;;;;25.93;17.30;;;6.20;90.10;;;;;;5067773;28;20404;-40
2022/03/20 04:07:33;;;;;;;23.50;17.20;;;6.30;89.90;;;;;;5047283;28;20511;-39
2022/03/20 04:10:05;;;;;;;21.30;17.17;;;6.00;90.20;;;;;;5057763;28;20422;-39
2022/03/20 04:12:31;;;;;;;21.00;17.90;;;6.00;90.00;;;;;;5050388;28;20515;-39
2022/03/20 04:15:02;;;;;;;24.50;17.63;;;5.90;90.00;;;;;;5030654;28;20427;-39
2022/03/20 04:17:32;;;;;;;25.30;16.73;;;5.80;90.00;;;;;;5052128;28;20954;-39
2022/03/20 04:19:58;;;;;;;21.30;17.07;;;5.90;90.20;;;;;;5072934;28;20592;-40
2022/03/20 04:22:25;;;;;;;21.20;17.00;;;5.90;90.20;;;;;;5048269;28;20853;-40
2022/03/20 04:24:52;;;;;;;20.57;17.63;;;5.80;90.10;;;;;;5068419;28;20443;-40
2022/03/20 04:27:18;;;;;;;24.83;17.30;;;6.00;90.10;;;;;;5049456;28;20439;-39
2022/03/20 04:29:43;;;;;;;24.03;17.70;;;5.90;89.30;;;;;;5047768;28;20511;-40
2022/03/20 04:32:10;;;;;;;24.10;17.03;;;6.00;89.50;;;;;;5058159;28;20585;-39
2022/03/20 04:34:37;;;;;;;25.83;18.80;;;6.00;89.50;;;;;;5073077;28;20466;-39
2022/03/20 04:37:06;;;;;;;25.73;17.90;;;5.90;89.50;;;;;;5062699;28;20459;-39
2022/03/20 04:39:36;;;;;;;22.83;18.40;;;6.10;89.90;;;;;;5052277;28;20519;-39
2022/03/20 04:42:03;;;;;;;21.87;17.60;;;5.70;89.10;;;;;;5048019;28;20424;-39
2022/03/20 04:44:28;;;;;;;26.93;17.77;;;5.70;89.40;;;;;;5047987;28;20516;-40
2022/03/20 04:46:54;;;;;;;22.63;16.80;;;5.70;90.10;;;;;;5055221;28;20908;-40
2022/03/20 05:00:28;;;;;;;21.27;16.63;;;5.60;89.90;;;;;;5047349;28;20440;-40
2022/03/20 05:02:54;;;;;;;23.27;16.67;;;5.90;90.30;;;;;;5053176;28;20558;-42
2022/03/20 05:05:20;;;;;;;21.87;16.70;;;5.60;89.20;;;;;;5051659;28;20189;-39
2022/03/20 05:07:45;;;;;;;22.37;17.10;;;5.90;88.80;;;;;;5049072;28;20195;-39
2022/03/20 05:15:40;;;;;;;24.60;17.10;;;5.60;88.60;;;;;;5047191;28;20432;-39
2022/03/20 05:18:07;;;;;;;23.70;16.50;;;5.70;88.50;;;;;;5049205;28;20443;-41
2022/03/20 05:20:33;;;;;;;22.70;16.97;;;5.60;88.50;;;;;;5063250;28;20189;-39
2022/03/20 05:22:59;;;;;;;22.20;16.73;;;5.80;88.10;;;;;;5048723;28;20551;-39
2022/03/20 05:25:28;;;;;;;21.33;16.83;;;5.80;88.50;;;;;;5052680;28;20905;-39
2022/03/20 05:27:54;;;;;;;18.63;16.10;;;5.50;87.70;;;;;;5047115;28;20467;-39
2022/03/20 05:30:20;;;;;;;24.40;17.60;;;5.40;87.50;;;;;;5046396;28;20424;-40
2022/03/20 05:32:46;;;;;;;24.40;16.60;;;5.30;87.30;;;;;;5048136;28;20440;-40
2022/03/20 05:35:12;;;;;;;20.53;16.10;;;5.40;87.90;;;;;;5069391;28;20559;-40
2022/03/20 05:37:38;;;;;;;22.40;15.83;;;5.40;87.90;;;;;;5047231;28;20696;-40
2022/03/20 05:40:05;;;;;;;25.67;17.67;;;5.50;87.50;;;;;;5047803;28;20700;-39
2022/03/20 05:42:30;;;;;;;21.93;17.20;;;5.70;87.40;;;;;;5046831;28;20182;-39
2022/03/20 05:44:56;;;;;;;21.00;16.40;;;5.30;87.50;;;;;;5047186;28;20474;-39
2022/03/20 05:47:22;;;;;;;23.37;17.30;;;5.20;87.90;;;;;;5049312;28;20192;-39
2022/03/20 05:49:48;;;;;;;19.70;15.97;;;5.20;88.30;;;;;;5059336;28;20186;-39
2022/03/20 05:52:15;;;;;;;22.40;16.40;;;5.30;88.40;;;;;;5053010;28;21037;-39
2022/03/20 05:54:41;;;;;;;22.67;16.97;;;5.30;87.60;;;;;;5046380;28;20533;-39
2022/03/20 05:59:53;;;;;;;24.50;17.73;;;5.30;87.10;;;;;;5046008;28;20524;-40
2022/03/20 06:02:20;;;;;;;22.83;17.20;;;5.40;87.70;;;;;;5052059;28;20460;-40
2022/03/20 06:04:46;;;;;;;21.40;16.57;;;5.50;87.40;;;;;;5054848;28;20918;-42
2022/03/20 06:07:12;;;;;;;25.03;17.07;;;5.30;86.70;;;;;;5055770;28;20804;-40
2022/03/20 06:09:38;;;;;;;24.70;16.47;;;5.40;86.90;;;;;;5053094;28;20439;-39
2022/03/20 06:12:05;;;;;;;22.90;17.10;;;5.40;86.80;;;;;;5053028;28;20194;-39
2022/03/20 06:14:32;;;;;;;21.27;16.20;;;5.40;86.50;;;;;;5046476;28;20578;-40
2022/03/20 06:16:58;;;;;;;22.03;17.23;;;5.40;87.30;;;;;;5047567;28;20519;-39
2022/03/20 06:19:24;;;;;;;21.07;15.90;;;5.40;85.70;;;;;;5069600;28;20493;-39
2022/03/20 06:21:49;;;;;;;21.57;16.90;;;5.20;86.30;;;;;;5067266;28;20223;-41
2022/03/20 06:24:16;;;;;;;23.17;15.93;;;5.50;86.10;;;;;;5046367;28;20280;-39
2022/03/20 06:26:41;;;;;;;19.17;15.57;;;5.50;85.70;;;;;;5048771;28;20312;-39
2022/03/20 06:29:07;;;;;;;22.53;16.57;;;5.40;85.20;;;;;;5046582;28;20938;-39
2022/03/20 06:31:33;;;;;;;23.67;16.60;;;5.60;85.80;;;;;;5048063;28;20197;-39
2022/03/20 06:33:59;;;;;;;20.43;16.60;;;5.40;86.10;;;;;;5063514;28;20196;-40
2022/03/20 06:36:26;;;;;;;22.57;16.00;;;5.50;85.80;;;;;;5075726;28;20462;-39
2022/03/20 06:38:52;;;;;;;22.60;15.43;;;5.60;85.40;;;;;;5050356;28;20822;-39
2022/03/20 06:41:20;;;;;;;21.67;16.30;;;5.90;85.00;;;;;;5060485;28;20419;-39
2022/03/20 06:43:46;;;;;;;23.20;17.17;;;5.90;85.00;;;;;;5050495;28;20448;-39
2022/03/20 06:46:12;;;;;;;23.20;16.80;;;6.00;83.70;;;;;;5049136;28;20543;-39
2022/03/20 06:48:37;;;;;;;21.87;15.47;;;5.90;83.10;;;;;;5065781;28;20224;-39
2022/03/20 06:51:06;;;;;;;20.20;15.90;;;5.80;83.20;;;;;;5072566;28;20543;-42
2022/03/20 06:53:33;;;;;;;21.23;16.80;;;5.80;83.20;;;;;;5050153;28;20194;-39
2022/03/20 06:56:00;;;;;;;21.90;16.67;;;5.80;83.80;;;;;;5055735;28;20481;-39
2022/03/20 06:58:27;;;;;;;20.33;15.80;;;5.90;83.20;;;;;;5050229;28;20525;-39
2022/03/20 07:00:53;;;;;;;22.63;17.23;;;5.80;84.00;;;;;;5049196;28;20435;-39
2022/03/20 07:03:20;;;;;;;19.37;15.77;;;5.90;83.00;;;;;;5063549;28;20441;-39
2022/03/20 07:05:46;;;;;;;21.00;16.30;;;6.20;82.60;;;;;;5068283;28;20450;-40
2022/03/20 07:08:12;;;;;;;26.47;17.73;;;6.00;82.60;;;;;;5060888;28;20424;-42
2022/03/20 07:10:38;;;;;;;21.93;16.60;;;6.20;82.50;;;;;;5052046;28;20434;-40
2022/03/20 07:15:52;;;;;;;20.53;17.80;;;6.20;83.60;;;;;;5049835;28;20444;-39
2022/03/20 07:18:19;;;;;;;21.50;15.87;;;6.10;82.60;;;;;;5063443;28;20473;-39
2022/03/20 07:20:47;;;;;;;22.90;15.97;;;6.60;82.60;;;;;;5057370;28;20857;-39
2022/03/20 07:23:13;;;;;;;20.37;16.17;;;6.40;81.70;;;;;;5055109;28;20428;-39
2022/03/20 07:31:12;;;;;;;21.60;16.87;;;6.70;81.60;;;;;;5049225;28;20534;-39
2022/03/20 07:33:39;;;;;;;20.67;16.10;;;6.70;80.90;;;;;;5054796;28;20501;-39
2022/03/20 07:36:06;;;;;;;22.17;17.27;;;6.70;81.20;;;;;;5070367;28;20856;-39
2022/03/20 07:38:32;;;;;;;22.30;16.97;;;6.90;82.00;;;;;;5049272;28;20525;-39
2022/03/20 07:40:58;;;;;;;23.70;18.23;;;6.90;80.60;;;;;;5054893;28;20791;-39
2022/03/20 07:43:23;;;;;;;24.80;17.07;;;7.00;80.50;;;;;;5050707;28;20420;-39
2022/03/20 07:45:50;;;;;;;24.73;17.00;;;7.10;79.90;;;;;;5049220;28;20209;-39
2022/03/20 07:48:15;;;;;;;21.70;17.00;;;7.30;79.90;;;;;;5049766;28;20497;-39
2022/03/20 07:50:41;;;;;;;22.33;17.63;;;7.20;80.10;;;;;;5064905;28;20861;-39
2022/03/20 07:53:08;;;;;;;20.80;16.50;;;7.50;79.50;;;;;;5052552;28;20602;-39
2022/03/20 07:55:34;;;;;;;23.80;17.40;;;7.40;79.30;;;;;;5049765;28;20462;-39
2022/03/20 07:58:01;;;;;;;22.57;16.40;;;7.50;77.80;;;;;;5051254;28;20478;-39
2022/03/20 08:00:26;;;;;;;23.53;18.23;;;7.50;78.10;;;;;;5038354;28;20432;-39
2022/03/20 08:02:52;;;;;;;24.70;17.80;;;7.60;80.50;;;;;;5051801;28;20494;-39
2022/03/20 08:05:18;;;;;;;26.00;17.93;;;7.70;78.40;;;;;;5067218;28;20327;-39
2022/03/20 08:07:44;;;;;;;20.10;16.93;;;7.70;77.50;;;;;;5059893;28;20185;-39
2022/03/20 08:10:12;;;;;;;26.17;18.57;;;7.30;77.70;;;;;;5059430;28;20431;-39
2022/03/20 08:12:39;;;;;;;24.90;18.47;;;7.10;78.70;;;;;;5063935;28;20627;-40
2022/03/20 08:15:06;;;;;;;27.30;17.73;;;7.50;78.90;;;;;;5048452;28;20459;-39
2022/03/20 08:17:41;;;;;;;25.20;17.57;;;7.40;79.00;;;;;;5048299;28;20436;-39
2022/03/20 08:20:08;;;;;;;20.80;16.87;;;7.30;79.40;;;;;;5063926;28;20460;-39
2022/03/20 08:22:34;;;;;;;22.87;17.57;;;7.40;80.00;;;;;;5059920;28;20577;-39
2022/03/20 08:24:59;;;;;;;23.47;18.30;;;7.30;79.20;;;;;;5048408;28;20511;-39
2022/03/20 08:27:25;;;;;;;21.73;17.60;;;7.40;79.60;;;;;;5057151;28;20206;-40
2022/03/20 08:29:51;;;;;;;23.60;18.40;;;7.60;79.40;;;;;;5048036;28;20204;-41
2022/03/20 08:32:17;;;;;;;22.93;19.03;;;7.70;79.50;;;;;;5048377;28;20346;-40
2022/03/20 08:34:43;;;;;;;23.03;18.00;;;7.50;78.60;;;;;;5068682;28;20431;-40
2022/03/20 08:37:08;;;;;;;24.27;18.60;;;7.50;78.50;;;;;;5069764;28;20192;-41
2022/03/20 08:39:34;;;;;;;25.47;18.30;;;7.70;79.50;;;;;;5047712;28;20213;-40
2022/03/20 08:42:00;;;;;;;25.33;19.17;;;7.70;80.60;;;;;;5053201;28;20189;-42
2022/03/20 08:44:28;;;;;;;23.97;17.57;;;7.90;80.50;;;;;;5047948;28;20280;-39
2022/03/20 08:46:53;;;;;;;24.10;17.67;;;8.30;80.00;;;;;;5046820;28;20190;-40
2022/03/20 08:49:19;;;;;;;22.10;17.37;;;8.30;79.50;;;;;;5059479;28;20524;-40
2022/03/20 08:51:45;;;;;;;25.67;18.00;;;8.40;79.40;;;;;;5067894;28;20557;-39
2022/03/20 08:54:11;;;;;;;20.47;16.90;;;8.40;77.90;;;;;;5048145;28;20276;-39
2022/03/20 08:56:37;;;;;;;27.97;19.23;;;8.50;78.50;;;;;;5047112;28;20213;-40
2022/03/20 08:59:04;;;;;;;21.87;17.33;;;8.70;77.90;;;;;;5048037;28;20490;-39
2022/03/20 09:01:30;;;;;;;19.83;16.80;;;8.60;78.40;;;;;;5047410;28;20424;-39
2022/03/20 09:03:56;;;;;;;23.70;18.67;;;8.50;79.20;;;;;;5053246;28;20451;-39
2022/03/20 09:06:22;;;;;;;26.20;19.17;;;8.40;79.40;;;;;;5074203;28;20419;-39
2022/03/20 09:08:49;;;;;;;21.87;17.60;;;8.50;80.70;;;;;;5051615;28;20431;-39
2022/03/20 09:11:16;;;;;;;23.30;18.63;;;8.50;78.70;;;;;;5053470;28;20431;-40
2022/03/20 09:13:42;;;;;;;28.10;18.97;;;8.90;79.70;;;;;;5054375;28;20919;-39
2022/03/20 09:19:03;;;;;;;24.17;17.90;;;8.90;79.70;;;;;;5051546;28;20674;-39
2022/03/20 09:21:37;;;;;;;23.97;19.53;;;9.00;79.50;;;;;;5073914;28;20435;-39
2022/03/20 09:24:04;;;;;;;22.60;18.77;;;9.10;77.90;;;;;;5046637;28;20544;-39
2022/03/20 09:26:30;;;;;;;26.67;19.90;;;9.20;78.50;;;;;;5050902;28;20462;-40
2022/03/20 09:28:56;;;;;;;29.20;20.70;;;9.00;79.20;;;;;;5048863;28;20501;-39
2022/03/20 09:31:22;;;;;;;27.87;19.80;;;9.20;79.20;;;;;;5047004;28;20966;-39
2022/03/20 09:33:49;;;;;;;27.47;20.37;;;9.10;78.80;;;;;;5052695;28;20509;-40
2022/03/20 09:36:15;;;;;;;25.80;20.20;;;9.20;79.20;;;;;;5083283;28;20797;-40
2022/03/20 09:38:41;;;;;;;24.17;20.43;;;9.10;79.40;;;;;;5048543;28;20470;-39
2022/03/20 09:41:08;;;;;;;28.70;20.07;;;8.90;80.70;;;;;;5046737;28;20239;-39
2022/03/20 09:43:37;;;;;;;24.37;19.37;;;8.80;80.30;;;;;;5047885;28;20917;-39
2022/03/20 09:46:03;;;;;;;26.93;20.37;;;8.70;80.30;;;;;;5047283;28;20424;-39
2022/03/20 09:48:30;;;;;;;24.73;20.40;;;8.80;80.90;;;;;;5046707;28;20454;-40
2022/03/20 09:50:58;;;;;;;27.47;20.13;;;8.90;81.40;;;;;;5047631;28;20225;-40
2022/03/20 09:53:24;;;;;;;26.13;20.60;;;8.90;81.30;;;;;;5050757;28;20775;-40
2022/03/20 09:55:51;;;;;;;27.73;20.70;;;8.90;80.00;;;;;;5045932;28;20762;-39
2022/03/20 09:58:17;;;;;;;26.20;19.23;;;9.20;81.20;;;;;;5056872;28;20650;-40
2022/03/20 10:00:42;;;;;;;26.40;20.60;;;9.10;83.90;;;;;;5046903;28;20549;-39
2022/03/20 10:03:21;;;;;;;27.87;21.37;;;9.20;80.80;;;;;;5045635;28;20517;-40
2022/03/20 10:06:09;;;;;;;25.20;20.50;;;9.40;82.00;;;;;;5054628;28;20196;-39
2022/03/20 10:08:35;;;;;;;24.80;20.67;;;9.50;80.40;;;;;;5051709;28;20435;-40
2022/03/20 10:11:15;;;;;;;28.67;21.73;;;9.60;80.90;;;;;;5064945;28;20415;-39
2022/03/20 10:14:10;;;;;;;31.20;21.53;;;9.90;79.80;;;;;;5053135;28;20930;-42
2022/03/20 10:16:40;;;;;;;26.80;21.53;;;9.80;80.00;;;;;;5045831;28;20775;-40
2022/03/20 10:19:25;;;;;;;27.40;21.00;;;9.90;79.50;;;;;;5049932;28;20466;-39
2022/03/20 10:21:52;;;;;;;28.83;23.37;;;10.00;77.90;;;;;;5064947;28;20441;-40
2022/03/20 10:24:20;;;;;;;25.43;20.97;;;10.00;78.80;;;;;;5052131;28;20432;-39
2022/03/20 10:27:09;;;;;;;27.07;21.60;;;10.00;78.30;;;;;;5048553;28;20450;-40
2022/03/20 10:29:45;;;;;;;27.30;21.50;;;10.20;79.00;;;;;;5054431;28;20488;-40
2022/03/20 10:32:11;;;;;;;28.87;22.80;;;10.20;78.10;;;;;;5047201;28;20865;-40
2022/03/20 10:34:48;;;;;;;30.67;23.10;;;10.30;79.50;;;;;;5056399;28;20436;-40
2022/03/20 10:37:14;;;;;;;26.60;21.53;;;10.50;78.90;;;;;;5068682;28;20187;-41
2022/03/20 10:39:42;;;;;;;27.20;21.87;;;10.30;79.10;;;;;;5046692;28;20471;-39
2022/03/20 10:42:14;;;;;;;27.00;22.00;;;10.40;79.90;;;;;;5050610;28;20685;-40
2022/03/20 10:44:41;;;;;;;27.50;22.57;;;10.30;80.80;;;;;;5051984;28;20521;-39
2022/03/20 10:47:16;;;;;;;30.30;24.07;;;10.40;80.70;;;;;;5046602;28;20432;-39
2022/03/20 10:50:00;;;;;;;29.03;23.00;;;10.40;79.70;;;;;;5053062;28;20443;-40
2022/03/20 10:52:26;;;;;;;28.70;22.80;;;10.40;81.20;;;;;;5059531;28;20456;-41
2022/03/20 10:54:53;;;;;;;30.47;23.73;;;10.50;81.90;;;;;;5047501;28;20428;-39
2022/03/20 10:57:20;;;;;;;32.53;23.97;;;10.70;82.00;;;;;;5050787;28;20207;-39
2022/03/20 11:00:01;;;;;;;30.00;24.07;;;10.80;81.80;;;;;;5045790;28;20475;-42
2022/03/20 11:02:27;;;;;;;31.47;25.00;;;10.70;82.00;;;;;;5046686;28;20784;-40
2022/03/20 11:04:53;;;;;;;32.63;23.90;;;10.80;82.80;;;;;;5051945;28;20451;-39
2022/03/20 11:07:20;;;;;;;34.87;24.83;;;11.00;81.30;;;;;;5073348;28;20426;-40
2022/03/20 11:09:51;;;;;;;32.50;24.10;;;10.70;81.00;;;;;;5044358;28;20705;-39
2022/03/20 11:12:23;;;;;;;32.33;24.90;;;10.90;80.90;;;;;;5047858;28;20431;-39
2022/03/20 11:14:49;;;;;;;35.60;26.20;;;11.10;81.00;;;;;;5046401;28;20495;-41
2022/03/20 11:17:17;;;;;;;32.63;24.70;;;11.00;80.30;;;;;;5046333;28;20850;-39
2022/03/20 11:19:53;;;;;;;31.90;25.30;;;11.10;81.90;;;;;;5051480;28;20578;-39
2022/03/20 11:22:20;;;;;;;31.77;24.70;;;11.20;81.00;;;;;;5074008;28;20509;-39
2022/03/20 11:24:48;;;;;;;32.53;25.40;;;11.20;81.10;;;;;;5055167;28;20432;-39
2022/03/20 11:27:22;;;;;;;31.03;24.00;;;11.20;80.00;;;;;;5052505;28;20420;-40
2022/03/20 11:29:50;;;;;;;34.77;25.03;;;11.50;81.30;;;;;;5057054;28;20527;-39
2022/03/20 11:32:18;;;;;;;33.17;25.20;;;11.30;81.20;;;;;;5049443;28;20435;-40
2022/03/20 11:34:48;;;;;;;33.10;26.20;;;11.30;80.90;;;;;;5051309;28;20704;-41
2022/03/20 11:37:16;;;;;;;32.70;25.17;;;11.20;80.20;;;;;;5068473;28;20955;-40
2022/03/20 11:40:11;;;;;;;30.70;24.17;;;11.20;82.10;;;;;;5056369;28;20467;-39
2022/03/20 11:42:37;;;;;;;31.03;24.53;;;11.20;80.90;;;;;;5055184;28;20423;-39
2022/03/20 11:45:03;;;;;;;30.67;25.20;;;11.10;81.70;;;;;;5052308;28;20423;-39
2022/03/20 11:47:30;;;;;;;31.33;24.30;;;11.10;81.70;;;;;;5049112;28;20420;-39
2022/03/20 11:50:15;;;;;;;34.60;25.93;;;11.20;82.50;;;;;;5055181;28;20548;-39
2022/03/20 11:53:02;;;;;;;33.00;25.43;;;11.40;82.80;;;;;;5074760;28;20430;-40
2022/03/20 11:55:40;;;;;;;31.97;25.07;;;11.20;83.20;;;;;;5047912;28;20507;-40
2022/03/20 11:58:21;;;;;;;31.80;24.50;;;11.30;84.30;;;;;;5053332;28;20455;-41
2022/03/20 12:01:04;;;;;;;30.13;23.10;;;11.30;84.60;;;;;;5047420;28;20478;-39
2022/03/20 12:03:55;;;;;;;34.57;25.60;;;11.50;84.60;;;;;;5057960;28;20498;-40
2022/03/20 12:06:54;;;;;;;32.70;25.20;;;11.50;84.90;;;;;;5078547;28;20555;-40
2022/03/20 12:09:38;;;;;;;34.50;25.03;;;11.30;85.20;;;;;;5056744;28;20955;-39
2022/03/20 12:12:16;;;;;;;30.73;23.50;;;11.40;86.30;;;;;;5048979;28;20466;-39
2022/03/20 12:14:48;;;;;;;34.70;25.37;;;11.40;86.20;;;;;;5057612;28;20419;-40
2022/03/20 12:17:14;;;;;;;32.57;25.90;;;11.40;86.70;;;;;;5069137;28;20433;-40
2022/03/20 12:19:44;;;;;;;36.57;27.07;;;11.50;86.70;;;;;;5062106;28;20471;-39
2022/03/20 12:22:34;;;;;;;34.73;25.70;;;11.50;86.60;;;;;;5072836;28;20208;-39
2022/03/20 12:25:04;;;;;;;34.30;27.10;;;11.50;87.20;;;;;;5052630;28;20436;-40
2022/03/20 12:27:30;;;;;;;33.27;25.93;;;11.50;88.50;;;;;;5056060;28;20447;-40
2022/03/20 12:30:03;;;;;;;34.67;26.90;;;11.50;88.70;;;;;;5053781;28;20424;-42
2022/03/20 12:32:46;;;;;;;32.27;25.00;;;11.60;89.50;;;;;;5048754;28;20467;-39
2022/03/20 12:35:15;;;;;;;36.80;25.07;;;11.60;90.10;;;;;;5054120;28;20453;-40
2022/03/20 12:37:43;;;;;;;34.73;25.50;;;11.70;90.40;;;;;;5072356;28;20431;-39
2022/03/20 12:40:19;;;;;;;35.80;25.73;;;12.10;90.50;;;;;;5065082;28;20622;-40
2022/03/20 12:43:08;;;;;;;34.07;24.80;;;11.90;90.40;;;;;;5052423;28;20427;-41
2022/03/20 12:45:36;;;;;;;39.30;25.00;;;12.00;90.20;;;;;;5048237;28;20520;-41
2022/03/20 12:48:03;;;;;;;30.67;24.13;;;12.00;90.80;;;;;;5046934;28;20776;-40
2022/03/20 12:50:33;;;;;;;30.53;24.10;;;12.10;90.80;;;;;;5052235;28;20478;-40
2022/03/20 12:53:14;;;;;;;33.10;26.17;;;12.00;90.30;;;;;;5071423;28;20455;-43
2022/03/20 12:55:41;;;;;;;35.23;26.20;;;12.10;90.50;;;;;;5057497;28;20419;-42
2022/03/20 12:58:14;;;;;;;31.00;25.13;;;12.00;90.40;;;;;;5061120;28;20434;-46
2022/03/20 13:00:40;;;;;;;33.80;25.30;;;12.10;90.70;;;;;;5047392;28;20424;-40
2022/03/20 13:03:11;;;;;;;31.87;24.80;;;12.00;91.30;;;;;;5047963;28;21028;-40
2022/03/20 13:05:48;;;;;;;30.20;24.27;;;12.00;91.80;;;;;;5050713;28;20959;-43
2022/03/20 13:08:29;;;;;;;29.87;23.33;;;12.20;92.30;;;;;;5063948;28;20438;-40
2022/03/20 13:10:57;;;;;;;31.57;24.10;;;12.00;92.50;;;;;;5046900;28;20780;-40
2022/03/20 13:13:36;;;;;;;34.17;25.27;;;12.00;92.30;;;;;;5054779;28;20425;-39
2022/03/20 13:16:04;;;;;;;32.17;23.60;;;12.10;92.20;;;;;;5048480;28;20415;-40
2022/03/20 13:18:31;;;;;;;32.33;23.60;;;12.00;92.50;;;;;;5047728;28;20554;-40